createdAt,value
2023-03-02T00:01:41.654Z,3.88
2023-03-02T00:04:12.117Z,3.67
2023-03-02T00:06:39.520Z,4.15
2023-03-02T00:09:06.399Z,4.07
2023-03-02T00:11:35.530Z,3.70
2023-03-02T00:14:02.405Z,3.95
2023-03-02T00:16:29.327Z,4.63
2023-03-02T00:18:56.217Z,3.67
2023-03-02T00:21:24.616Z,3.90
2023-03-02T00:23:52.786Z,4.00
2023-03-02T00:26:20.149Z,4.20
2023-03-02T00:28:47.021Z,3.75
2023-03-02T00:31:13.889Z,3.47
2023-03-02T00:33:40.592Z,3.97
2023-03-02T00:36:15.449Z,3.40
2023-03-02T00:38:42.364Z,4.18
2023-03-02T00:41:10.204Z,4.03
2023-03-02T00:43:36.926Z,4.18
2023-03-02T00:46:18.057Z,5.10
2023-03-02T00:48:45.109Z,3.80
2023-03-02T00:51:12.561Z,4.47
2023-03-02T00:53:39.566Z,4.45
2023-03-02T00:56:07.146Z,5.03
2023-03-02T00:58:34.482Z,4.90
2023-03-02T01:01:06.883Z,5.43
2023-03-02T01:03:33.722Z,5.60
2023-03-02T01:06:00.745Z,4.57
2023-03-02T01:08:27.427Z,4.60
2023-03-02T01:10:54.503Z,4.32
2023-03-02T01:13:21.346Z,4.22
2023-03-02T01:15:48.725Z,4.65
2023-03-02T01:18:15.463Z,4.30
2023-03-02T01:20:42.247Z,4.00
2023-03-02T01:23:09.013Z,3.65
2023-03-02T01:25:35.708Z,3.63
2023-03-02T01:28:02.454Z,3.67
2023-03-02T01:30:29.165Z,3.50
2023-03-02T01:32:55.926Z,3.20
2023-03-02T01:35:22.707Z,3.00
2023-03-02T01:37:49.382Z,3.10
2023-03-02T01:40:16.086Z,3.20
2023-03-02T01:42:51.267Z,3.63
2023-03-02T01:45:45.735Z,3.45
2023-03-02T01:48:15.742Z,3.45
2023-03-02T01:50:42.518Z,3.40
2023-03-02T01:53:09.521Z,3.80
2023-03-02T01:55:38.926Z,3.83
2023-03-02T01:58:06.542Z,4.03
2023-03-02T02:00:38.588Z,3.72
2023-03-02T02:03:10.803Z,4.07
2023-03-02T02:05:41.850Z,4.72
2023-03-02T02:08:09.134Z,4.78
2023-03-02T02:10:35.983Z,4.95
2023-03-02T02:13:03.027Z,4.93
2023-03-02T02:15:30.426Z,5.07
2023-03-02T02:17:57.091Z,4.88
2023-03-02T02:20:46.553Z,5.38
2023-03-02T02:23:28.238Z,5.63
2023-03-02T02:28:58.775Z,5.65
2023-03-02T02:31:36.326Z,4.72
2023-03-02T02:34:16.611Z,4.75
2023-03-02T02:36:48.054Z,5.57
2023-03-02T02:39:37.361Z,5.35
2023-03-02T02:42:07.172Z,5.07
2023-03-02T02:44:34.088Z,5.60
2023-03-02T02:47:00.860Z,6.22
2023-03-02T02:49:39.185Z,6.18
2023-03-02T02:52:06.434Z,6.40
2023-03-02T02:54:35.190Z,6.35
2023-03-02T02:57:04.112Z,5.85
2023-03-02T02:59:35.593Z,6.28
2023-03-02T03:02:02.403Z,6.35
2023-03-02T03:04:31.954Z,6.20
2023-03-02T03:07:05.307Z,5.68
2023-03-02T03:09:32.615Z,6.40
2023-03-02T03:12:24.576Z,5.30
2023-03-02T03:17:19.031Z,5.03
2023-03-02T03:19:47.220Z,5.70
2023-03-02T03:22:16.562Z,6.00
2023-03-02T03:24:45.093Z,5.88
2023-03-02T03:27:15.322Z,5.60
2023-03-02T03:29:48.092Z,5.90
2023-03-02T03:32:14.891Z,5.55
2023-03-02T03:34:41.700Z,5.70
2023-03-02T03:37:15.032Z,6.10
2023-03-02T03:39:42.283Z,6.05
2023-03-02T03:42:09.915Z,5.78
2023-03-02T03:44:36.756Z,5.63
2023-03-02T03:47:03.767Z,5.10
2023-03-02T03:49:30.462Z,5.35
2023-03-02T03:51:57.200Z,5.53
2023-03-02T03:54:24.115Z,5.13
2023-03-02T03:56:51.176Z,5.47
2023-03-02T03:59:21.941Z,4.68
2023-03-02T04:01:51.526Z,5.17
2023-03-02T04:04:22.809Z,4.65
2023-03-02T04:06:50.016Z,5.07
2023-03-02T04:09:20.124Z,5.22
2023-03-02T04:11:48.842Z,5.10
2023-03-02T04:14:16.998Z,5.10
2023-03-02T04:16:44.507Z,5.68
2023-03-02T04:19:12.513Z,5.30
2023-03-02T04:21:41.347Z,4.50
2023-03-02T04:24:09.561Z,4.47
2023-03-02T04:26:37.866Z,4.25
2023-03-02T04:29:05.035Z,4.25
2023-03-02T04:31:32.146Z,4.50
2023-03-02T04:34:00.665Z,3.83
2023-03-02T04:36:27.667Z,4.18
2023-03-02T04:38:54.538Z,4.47
2023-03-02T04:41:22.125Z,4.40
2023-03-02T04:43:48.765Z,3.70
2023-03-02T04:46:19.427Z,3.72
2023-03-02T04:48:46.153Z,4.00
2023-03-02T04:51:38.586Z,3.60
2023-03-02T04:54:08.690Z,3.60
2023-03-02T04:56:35.661Z,3.22
2023-03-02T04:59:02.545Z,3.90
2023-03-02T05:01:29.427Z,3.65
2023-03-02T05:03:56.489Z,3.70
2023-03-02T05:06:25.216Z,4.07
2023-03-02T05:08:53.373Z,3.88
2023-03-02T05:11:23.290Z,4.07
2023-03-02T05:13:51.785Z,3.90
2023-03-02T05:16:19.296Z,4.40
2023-03-02T05:18:46.925Z,4.55
2023-03-02T05:21:15.863Z,4.72
2023-03-02T05:23:43.322Z,4.35
2023-03-02T05:26:10.804Z,4.15
2023-03-02T05:28:38.187Z,4.68
2023-03-02T05:31:05.351Z,3.47
2023-03-02T05:33:32.371Z,3.85
2023-03-02T05:35:59.824Z,4.13
2023-03-02T05:38:27.428Z,3.42
2023-03-02T05:40:54.381Z,3.70
2023-03-02T05:43:23.503Z,3.70
2023-03-02T05:45:50.495Z,3.60
2023-03-02T05:48:17.388Z,4.03
2023-03-02T05:50:44.266Z,4.05
2023-03-02T05:53:11.034Z,3.67
2023-03-02T05:55:37.846Z,3.72
2023-03-02T05:58:06.898Z,4.20
2023-03-02T06:00:33.626Z,3.80
2023-03-02T06:03:00.597Z,4.13
2023-03-02T06:05:27.317Z,4.45
2023-03-02T06:07:54.078Z,3.95
2023-03-02T06:10:21.087Z,3.80
2023-03-02T06:12:47.785Z,4.28
2023-03-02T06:15:14.514Z,4.07
2023-03-02T06:17:41.320Z,4.40
2023-03-02T06:20:11.247Z,5.50
2023-03-02T06:22:45.295Z,4.60
2023-03-02T06:25:14.731Z,5.03
2023-03-02T06:27:42.228Z,4.60
2023-03-02T06:30:12.911Z,4.47
2023-03-02T06:32:39.820Z,5.20
2023-03-02T06:35:07.775Z,4.80
2023-03-02T06:37:35.110Z,5.78
2023-03-02T06:40:01.954Z,5.13
2023-03-02T06:42:28.815Z,5.15
2023-03-02T06:44:55.635Z,5.20
2023-03-02T06:47:23.248Z,4.90
2023-03-02T06:49:50.046Z,5.03
2023-03-02T06:52:17.026Z,5.05
2023-03-02T06:54:44.031Z,4.82
2023-03-02T06:57:10.977Z,5.20
2023-03-02T06:59:37.681Z,5.90
2023-03-02T07:02:04.475Z,4.82
2023-03-02T07:04:31.231Z,5.20
2023-03-02T07:06:58.095Z,4.82
2023-03-02T07:09:24.923Z,5.10
2023-03-02T07:11:51.643Z,4.78
2023-03-02T07:14:18.350Z,5.55
2023-03-02T07:16:45.322Z,5.40
2023-03-02T07:19:15.270Z,5.15
2023-03-02T07:21:42.020Z,4.95
2023-03-02T07:24:08.817Z,4.85
2023-03-02T07:26:35.546Z,6.65
2023-03-02T07:29:02.399Z,5.90
2023-03-02T07:31:29.307Z,6.32
2023-03-02T07:33:55.994Z,5.10
2023-03-02T07:36:22.718Z,5.30
2023-03-02T07:38:49.410Z,5.72
2023-03-02T07:41:16.935Z,6.05
2023-03-02T07:43:44.050Z,5.85
2023-03-02T07:46:10.890Z,6.53
2023-03-02T07:48:37.815Z,6.30
2023-03-02T07:51:07.103Z,6.70
2023-03-02T07:53:33.836Z,7.07
2023-03-02T07:56:02.253Z,5.97
2023-03-02T07:58:29.019Z,6.18
2023-03-02T08:00:55.848Z,6.22
2023-03-02T08:03:22.561Z,5.38
2023-03-02T08:05:49.264Z,5.68
2023-03-02T08:08:16.043Z,5.25
2023-03-02T08:10:42.700Z,5.05
2023-03-02T08:13:09.476Z,5.38
2023-03-02T08:15:36.274Z,6.05
2023-03-02T08:18:03.075Z,4.78
2023-03-02T08:20:29.876Z,4.88
2023-03-02T08:22:56.702Z,4.95
2023-03-02T08:25:23.418Z,4.60
2023-03-02T08:27:50.073Z,4.47
2023-03-02T08:30:16.934Z,5.38
2023-03-02T08:32:43.688Z,4.95
2023-03-02T08:35:10.546Z,5.70
2023-03-02T08:37:37.292Z,4.88
2023-03-02T08:40:04.335Z,5.10
2023-03-02T08:42:31.042Z,5.28
2023-03-02T08:44:57.784Z,5.22
2023-03-02T08:47:24.544Z,4.20
2023-03-02T08:49:51.206Z,4.22
2023-03-02T08:52:18.155Z,4.30
2023-03-02T08:54:45.011Z,4.35
2023-03-02T08:57:12.159Z,4.63
2023-03-02T08:59:39.283Z,4.63
2023-03-02T09:02:06.004Z,4.38
2023-03-02T09:04:32.766Z,5.13
2023-03-02T09:06:59.472Z,4.13
2023-03-02T09:09:26.447Z,4.38
2023-03-02T09:11:53.214Z,5.60
2023-03-02T09:14:19.999Z,5.40
2023-03-02T09:16:46.998Z,4.38
2023-03-02T09:19:14.530Z,4.65
2023-03-02T09:21:41.331Z,5.88
2023-03-02T09:24:08.271Z,5.10
2023-03-02T09:26:36.040Z,5.57
2023-03-02T09:29:02.810Z,5.57
2023-03-02T09:31:30.504Z,5.38
2023-03-02T09:33:57.514Z,5.00
2023-03-02T09:36:26.035Z,4.63
2023-03-02T09:38:53.748Z,5.00
2023-03-02T09:41:20.453Z,5.18
2023-03-02T09:44:02.332Z,5.95
2023-03-02T09:46:37.904Z,5.90
2023-03-02T09:49:29.635Z,4.65
2023-03-02T09:52:30.419Z,4.30
2023-03-02T09:55:02.057Z,5.32
2023-03-02T10:00:34.924Z,4.78
2023-03-02T10:03:19.076Z,5.63
2023-03-02T10:05:48.398Z,5.00
2023-03-02T10:08:25.994Z,5.15
2023-03-02T10:11:04.711Z,5.55
2023-03-02T10:13:42.327Z,4.45
2023-03-02T10:16:44.555Z,5.13
2023-03-02T10:19:32.414Z,4.63
2023-03-02T10:22:12.218Z,4.45
2023-03-02T10:24:57.167Z,4.47
2023-03-02T10:27:36.597Z,4.90
2023-03-02T10:30:27.661Z,4.97
2023-03-02T10:32:59.512Z,4.80
2023-03-02T10:35:28.754Z,5.40
2023-03-02T10:38:06.908Z,5.10
2023-03-02T10:40:43.439Z,5.13
2023-03-02T10:43:30.839Z,4.65
2023-03-02T10:46:09.868Z,4.80
2023-03-02T10:48:58.248Z,4.95
2023-03-02T10:51:32.778Z,5.22
2023-03-02T10:54:26.155Z,5.43
2023-03-02T10:56:56.406Z,5.35
2023-03-02T10:59:26.190Z,5.00
2023-03-02T11:02:04.093Z,5.43
2023-03-02T11:04:31.801Z,5.35
2023-03-02T11:07:15.157Z,5.18
2023-03-02T11:09:41.817Z,5.38
2023-03-02T11:12:16.041Z,4.47
2023-03-02T11:14:43.438Z,5.22
2023-03-02T11:17:37.146Z,4.75
2023-03-02T11:20:05.519Z,4.22
2023-03-02T11:23:10.540Z,4.60
2023-03-02T11:25:42.585Z,4.35
2023-03-02T11:28:32.879Z,5.05
2023-03-02T11:31:02.594Z,4.82
2023-03-02T11:33:29.286Z,5.60
2023-03-02T11:36:02.849Z,5.22
2023-03-02T11:38:34.004Z,4.90
2023-03-02T11:41:11.397Z,5.30
2023-03-02T11:43:38.170Z,5.88
2023-03-02T11:46:13.778Z,5.13
2023-03-02T11:48:49.008Z,5.60
2023-03-02T11:51:26.413Z,5.30
2023-03-02T11:54:03.769Z,5.88
2023-03-02T11:56:34.495Z,6.18
2023-03-02T11:59:11.315Z,5.57
2023-03-02T12:01:40.343Z,6.93
2023-03-02T12:04:10.118Z,6.03
2023-03-02T12:06:43.957Z,5.15
2023-03-02T12:09:22.844Z,5.60
2023-03-02T12:11:56.916Z,5.53
2023-03-02T12:14:37.970Z,6.45
2023-03-02T12:17:19.269Z,6.30
2023-03-02T12:19:46.543Z,6.32
2023-03-02T12:22:14.760Z,6.30
2023-03-02T12:24:44.789Z,6.05
2023-03-02T12:27:20.763Z,6.22
2023-03-02T12:29:55.366Z,6.10
2023-03-02T12:32:30.847Z,6.15
2023-03-02T12:35:14.401Z,6.35
2023-03-02T12:38:00.700Z,6.30
2023-03-02T12:40:51.355Z,6.55
2023-03-02T12:43:17.988Z,6.03
2023-03-02T12:46:22.319Z,6.47
2023-03-02T12:49:10.906Z,6.57
2023-03-02T12:51:44.182Z,6.13
2023-03-02T12:54:17.183Z,5.70
2023-03-02T12:56:44.393Z,5.50
2023-03-02T12:59:22.141Z,5.13
2023-03-02T13:01:48.995Z,6.07
2023-03-02T13:04:24.090Z,5.70
2023-03-02T13:06:52.800Z,5.93
2023-03-02T13:09:20.418Z,5.57
2023-03-02T13:11:49.444Z,6.03
2023-03-02T13:14:22.602Z,5.78
2023-03-02T13:17:03.118Z,6.03
2023-03-02T13:19:31.863Z,5.47
2023-03-02T13:22:00.245Z,5.80
2023-03-02T13:24:29.277Z,5.88
2023-03-02T13:26:58.397Z,5.72
2023-03-02T13:29:31.723Z,5.50
2023-03-02T13:32:18.733Z,5.93
2023-03-02T13:34:52.168Z,6.03
2023-03-02T13:37:29.547Z,4.65
2023-03-02T13:39:58.260Z,5.80
2023-03-02T13:42:29.346Z,5.63
2023-03-02T13:44:56.172Z,5.20
2023-03-02T13:47:24.668Z,5.60
2023-03-02T13:49:51.530Z,5.25
2023-03-02T13:52:36.380Z,5.10
2023-03-02T13:55:03.232Z,5.93
2023-03-02T13:57:31.937Z,6.03
2023-03-02T13:59:59.981Z,5.93
2023-03-02T14:02:29.571Z,5.00
2023-03-02T14:04:57.507Z,5.60
2023-03-02T14:07:24.354Z,5.10
2023-03-02T14:09:51.088Z,5.22
2023-03-02T14:12:30.663Z,5.47
2023-03-02T14:15:00.455Z,5.68
2023-03-02T14:17:27.310Z,6.22
2023-03-02T14:19:55.270Z,5.57
2023-03-02T14:22:25.093Z,5.43
2023-03-02T14:24:51.869Z,6.03
2023-03-02T14:27:19.203Z,5.38
2023-03-02T14:29:47.157Z,5.45
2023-03-02T14:32:15.516Z,5.50
2023-03-02T14:34:42.358Z,5.30
2023-03-02T14:37:16.698Z,5.25
2023-03-02T14:39:46.920Z,5.82
2023-03-02T14:42:15.772Z,4.80
2023-03-02T14:44:44.352Z,4.45
2023-03-02T14:47:11.079Z,5.03
2023-03-02T14:49:38.550Z,4.90
2023-03-02T14:52:13.536Z,4.75
2023-03-02T14:54:44.812Z,4.90
2023-03-02T14:57:25.081Z,4.60
2023-03-02T14:59:52.614Z,4.53
2023-03-02T15:02:25.669Z,4.82
2023-03-02T15:04:56.141Z,4.63
2023-03-02T15:07:26.086Z,4.82
2023-03-02T15:09:52.980Z,4.93
2023-03-02T15:12:19.727Z,4.68
2023-03-02T15:14:46.499Z,4.60
2023-03-02T15:17:13.163Z,4.50
2023-03-02T15:19:39.881Z,4.25
2023-03-02T15:22:06.579Z,4.47
2023-03-02T15:24:33.677Z,4.55
2023-03-02T15:27:01.508Z,4.53
2023-03-02T15:29:28.357Z,4.00
2023-03-02T15:31:55.266Z,3.92
2023-03-02T15:34:22.104Z,3.63
2023-03-02T15:36:48.926Z,3.13
2023-03-02T15:39:16.704Z,3.78
2023-03-02T15:41:43.545Z,3.67
2023-03-02T15:44:21.617Z,3.72
2023-03-02T15:46:56.734Z,4.20
2023-03-02T15:49:27.189Z,3.90
2023-03-02T15:51:58.044Z,4.30
2023-03-02T15:54:26.476Z,4.43
2023-03-02T15:56:53.597Z,4.82
2023-03-02T15:59:21.724Z,4.47
2023-03-02T16:01:49.160Z,4.43
2023-03-02T16:04:16.285Z,4.10
2023-03-02T16:06:43.385Z,3.88
2023-03-02T16:09:10.478Z,3.55
2023-03-02T16:11:37.408Z,3.97
2023-03-02T16:14:04.612Z,4.50
2023-03-02T16:16:31.725Z,4.53
2023-03-02T16:18:59.299Z,3.83
2023-03-02T16:21:28.963Z,4.03
2023-03-02T16:24:03.089Z,4.85
2023-03-02T16:26:31.324Z,4.70
2023-03-02T16:28:58.554Z,4.13
2023-03-02T16:31:28.355Z,4.43
2023-03-02T16:33:57.590Z,4.15
2023-03-02T16:36:24.972Z,4.60
2023-03-02T16:38:52.468Z,4.20
2023-03-02T16:41:21.612Z,3.97
2023-03-02T16:43:51.108Z,4.25
2023-03-02T16:46:19.036Z,4.40
2023-03-02T16:48:47.020Z,4.25
2023-03-02T16:51:13.803Z,3.95
2023-03-02T16:53:41.101Z,4.32
2023-03-02T16:56:08.803Z,4.07
2023-03-02T16:58:38.383Z,4.30
2023-03-02T17:01:06.358Z,4.25
2023-03-02T17:03:33.564Z,4.03
2023-03-02T17:06:01.419Z,4.05
2023-03-02T17:08:28.772Z,3.65
2023-03-02T17:10:55.537Z,3.78
2023-03-02T17:13:22.258Z,3.90
2023-03-02T17:15:49.072Z,4.45
2023-03-02T17:18:15.827Z,3.70
2023-03-02T17:20:43.090Z,4.13
2023-03-02T17:23:12.364Z,4.50
2023-03-02T17:25:39.270Z,3.67
2023-03-02T17:28:06.493Z,4.25
2023-03-02T17:30:33.252Z,3.70
2023-03-02T17:32:59.977Z,4.05
2023-03-02T17:35:26.696Z,3.92
2023-03-02T17:37:53.439Z,3.67
2023-03-02T17:40:20.258Z,3.42
2023-03-02T17:42:48.158Z,3.40
2023-03-02T17:45:24.694Z,3.08
2023-03-02T17:47:53.028Z,3.25
2023-03-02T17:50:20.505Z,3.85
2023-03-02T17:52:47.288Z,3.03
2023-03-02T17:55:14.287Z,3.22
2023-03-02T17:57:44.307Z,3.22
2023-03-02T18:00:15.805Z,3.40
2023-03-02T18:05:10.094Z,3.30
2023-03-02T18:07:37.561Z,3.20
2023-03-02T18:10:05.621Z,3.05
2023-03-02T18:12:32.781Z,3.20
2023-03-02T18:14:59.530Z,3.50
2023-03-02T18:17:26.220Z,3.78
2023-03-02T18:19:53.024Z,3.47
2023-03-02T18:22:21.377Z,3.40
2023-03-02T18:24:48.627Z,4.15
2023-03-02T18:27:15.333Z,4.30
2023-03-02T18:29:42.048Z,4.05
2023-03-02T18:32:10.454Z,3.63
2023-03-02T18:34:37.197Z,3.65
2023-03-02T18:37:03.947Z,3.80
2023-03-02T18:39:30.718Z,4.05
2023-03-02T18:41:57.426Z,3.83
2023-03-02T18:44:27.859Z,3.70
2023-03-02T18:46:55.238Z,4.07
2023-03-02T18:49:22.051Z,3.33
2023-03-02T18:51:49.021Z,3.88
2023-03-02T18:54:15.732Z,4.03
2023-03-02T18:56:42.593Z,3.85
2023-03-02T18:59:09.799Z,3.55
2023-03-02T19:01:36.826Z,3.75
2023-03-02T19:04:05.034Z,3.97
2023-03-02T19:06:33.132Z,4.10
2023-03-02T19:08:59.863Z,3.25
2023-03-02T19:11:26.643Z,4.10
2023-03-02T19:13:53.360Z,3.53
2023-03-02T19:16:20.111Z,3.80
2023-03-02T19:18:46.943Z,4.05
2023-03-02T19:21:13.676Z,4.25
2023-03-02T19:23:41.104Z,3.88
2023-03-02T19:26:08.709Z,3.72
2023-03-02T19:28:37.093Z,3.92
2023-03-02T19:31:08.877Z,4.03
2023-03-02T19:33:35.854Z,3.83
2023-03-02T19:36:02.697Z,3.80
2023-03-02T19:38:29.706Z,3.95
2023-03-02T19:41:00.728Z,4.35
2023-03-02T19:43:28.147Z,3.95
2023-03-02T19:45:55.109Z,3.97
2023-03-02T19:48:22.009Z,4.28
2023-03-02T19:50:49.156Z,4.60
2023-03-02T19:53:17.153Z,4.00
2023-03-02T19:55:44.609Z,3.67
2023-03-02T19:58:17.103Z,4.13
2023-03-02T20:00:44.621Z,4.03
2023-03-02T20:03:11.459Z,3.92
2023-03-02T20:05:38.594Z,3.95
2023-03-02T20:08:06.166Z,3.45
2023-03-02T20:10:32.862Z,3.53
2023-03-02T20:13:00.153Z,3.83
2023-03-02T20:15:28.445Z,3.72
2023-03-02T20:17:55.445Z,3.63
2023-03-02T20:20:24.660Z,4.38
2023-03-02T20:22:51.346Z,3.38
2023-03-02T20:25:19.803Z,3.92
2023-03-02T20:27:49.129Z,3.90
2023-03-02T20:30:22.545Z,3.97
2023-03-02T20:32:49.349Z,4.38
2023-03-02T20:35:16.127Z,4.07
2023-03-02T20:37:43.024Z,3.75
2023-03-02T20:40:11.084Z,4.18
2023-03-02T20:42:37.907Z,3.95
2023-03-02T20:45:05.239Z,3.83
2023-03-02T20:47:32.278Z,4.20
2023-03-02T20:49:59.794Z,3.88
2023-03-02T20:52:26.929Z,4.78
2023-03-02T20:54:53.861Z,4.68
2023-03-02T20:57:21.474Z,4.03
2023-03-02T20:59:49.500Z,4.55
2023-03-02T21:02:18.798Z,4.90
2023-03-02T21:04:45.902Z,4.30
2023-03-02T21:07:13.980Z,4.22
2023-03-02T21:09:41.264Z,4.82
2023-03-02T21:12:08.712Z,4.43
2023-03-02T21:14:35.643Z,4.93
2023-03-02T21:17:02.367Z,4.68
2023-03-02T21:19:29.624Z,4.28
2023-03-02T21:21:57.666Z,4.47
2023-03-02T21:24:24.859Z,4.95
2023-03-02T21:26:53.811Z,4.28
2023-03-02T21:29:22.730Z,5.15
2023-03-02T21:31:49.435Z,4.60
2023-03-02T21:34:18.946Z,4.13
2023-03-02T21:36:46.147Z,4.38
2023-03-02T21:39:13.571Z,4.72
2023-03-02T21:41:40.447Z,4.43
2023-03-02T21:44:07.387Z,4.05
2023-03-02T21:46:35.614Z,4.70
2023-03-02T21:49:02.429Z,4.65
2023-03-02T21:51:29.206Z,4.57
2023-03-02T21:53:55.893Z,4.88
2023-03-02T21:56:24.816Z,4.30
2023-03-02T21:58:54.062Z,4.00
2023-03-02T22:01:21.581Z,4.10
2023-03-02T22:03:49.115Z,4.68
2023-03-02T22:06:24.989Z,3.67
2023-03-02T22:08:52.270Z,3.92
2023-03-02T22:11:35.796Z,3.90
2023-03-02T22:14:14.147Z,3.80
2023-03-02T22:16:43.265Z,3.30
2023-03-02T22:19:28.106Z,3.80
2023-03-02T22:21:57.588Z,3.47
2023-03-02T22:24:27.466Z,3.30
2023-03-02T22:27:18.380Z,4.20
2023-03-02T22:29:46.774Z,3.83
2023-03-02T22:32:22.630Z,4.13
2023-03-02T22:34:55.013Z,3.55
2023-03-02T22:37:27.821Z,3.45
2023-03-02T22:40:01.810Z,3.80
2023-03-02T22:42:30.865Z,3.78
2023-03-02T22:45:21.133Z,4.50
2023-03-02T22:47:51.377Z,3.60
2023-03-02T22:50:25.576Z,4.05
2023-03-02T22:52:53.620Z,3.90
2023-03-02T22:55:40.188Z,3.88
2023-03-02T22:58:30.352Z,3.88
2023-03-02T23:03:45.256Z,3.80
2023-03-02T23:06:32.417Z,3.55
2023-03-02T23:09:01.851Z,3.25
2023-03-02T23:11:31.857Z,3.80
2023-03-02T23:14:01.843Z,3.25
2023-03-02T23:16:34.015Z,3.30
2023-03-02T23:19:04.109Z,3.42
2023-03-02T23:21:47.154Z,3.50
2023-03-02T23:24:14.251Z,2.90
2023-03-02T23:26:41.174Z,3.10
2023-03-02T23:29:07.842Z,2.78
2023-03-02T23:31:34.591Z,2.70
2023-03-02T23:34:01.307Z,3.20
2023-03-02T23:36:28.361Z,2.78
2023-03-02T23:38:55.113Z,2.83
2023-03-02T23:41:21.975Z,3.20
2023-03-02T23:43:48.720Z,2.78
2023-03-02T23:46:15.559Z,2.47
2023-03-02T23:48:43.115Z,2.92
2023-03-02T23:51:10.356Z,2.38
2023-03-02T23:53:37.113Z,2.80
2023-03-02T23:56:03.931Z,2.72
2023-03-02T23:58:30.616Z,2.58
